Jacana — WDG3702 — position and weather

sailwx.info

Track history (hours):
 
Tides and Currents Weather Stations Pressure Air Temp Water Temp Dewpoint Dewpoint Depression Visibility Wind Speed Wind Dir Waves Ship Positions

Jacana

Owner: Jacana Yacht LLC, Woodhaven, NY. More information available from US FCC via Universal Licensing System and Coast Guard Vessel Documentation Center.

Last reported at 2017-Oct-15 03:25 UTC. Time now 2017-Oct-17 04:32 UTC.
Position N 40°44' W 073°58'.

Length 20 m.

Type: Passenger vessel. MMSI: 367528810.

Date/timePositionNaut miles runAvg speedWind from/ knotsBaromVisibWave heightAir tempDewpointWater temp
2017-Oct-15 03:25N 40°44' W 073°58'0 0.1
2017-Oct-15 03:00N 40°44' W 073°58'1 1.4
2017-Oct-15 02:30N 40°43' W 073°58'2 3.3
2017-Oct-15 02:01N 40°42' W 073°60'2 4.6
2017-Oct-15 01:30N 40°41' W 074°02'2 3.1
2017-Oct-15 01:00N 40°42' W 074°01'3 5.5
2017-Oct-15 00:30N 40°44' W 073°58'0 0.0
2017-Oct-14 23:59N 40°44' W 073°58'0 0.0
2017-Oct-14 23:30N 40°44' W 073°58'0 0.0
2017-Oct-14 23:00N 40°44' W 073°58'0 0.0
2017-Oct-14 03:29N 40°44' W 073°58'0 0.1
2017-Oct-14 03:01N 40°44' W 073°58'0 0.1
2017-Oct-14 02:31N 40°44' W 073°58'1 1.1
2017-Oct-14 01:59N 40°43' W 073°58'2 3.4
2017-Oct-14 01:30N 40°42' W 073°60'2 4.4
2017-Oct-14 01:00N 40°41' W 074°02'1 2.6
2017-Oct-14 00:30N 40°42' W 074°01'3 5.7
2017-Oct-14 00:00N 40°44' W 073°58'0 0.0
2017-Oct-13 23:30N 40°44' W 073°58'0 0.0
2017-Oct-13 22:59N 40°44' W 073°58'0 0.0
2017-Oct-13 22:30N 40°44' W 073°58'  
2017-Oct-08 03:05N 40°44' W 073°58'0 0.5
2017-Oct-08 03:00N 40°44' W 073°58'0 0.2
2017-Oct-08 02:30N 40°44' W 073°58'1 2.4
2017-Oct-08 02:00N 40°45' W 073°57'3 5.9
2017-Oct-08 01:30N 40°42' W 073°59'2 4.9
2017-Oct-08 01:00N 40°41' W 074°02'2 3.5
2017-Oct-08 00:30N 40°42' W 074°00'1 2.3
2017-Oct-08 00:00N 40°43' W 073°59'2 3.0
2017-Oct-07 23:30N 40°44' W 073°58'0 0.3
2017-Oct-07 23:00N 40°44' W 073°58'0 0.0
2017-Oct-07 22:31N 40°44' W 073°58'  
Track history (hours):
 
Tides and Currents Weather Stations Pressure Air Temp Water Temp Dewpoint Dewpoint Depression Visibility Wind Speed Wind Dir Waves Ship Positions

Jacana

Owner: Jacana Yacht LLC, Woodhaven, NY. More information available from US FCC via Universal Licensing System and Coast Guard Vessel Documentation Center.

Last reported at 2017-Oct-15 03:25 UTC. Time now 2017-Oct-17 04:32 UTC.
Position N 40°44' W 073°58'.

Length 20 m.

Type: Passenger vessel. MMSI: 367528810.

Date/timePositionNaut miles runAvg speedWind from/ knotsBaromVisibWave heightAir tempDewpointWater temp
2017-Oct-15 03:25N 40°44' W 073°58'0 0.1
2017-Oct-15 03:00N 40°44' W 073°58'1 1.4
2017-Oct-15 02:30N 40°43' W 073°58'2 3.3
2017-Oct-15 02:01N 40°42' W 073°60'2 4.6
2017-Oct-15 01:30N 40°41' W 074°02'2 3.1
2017-Oct-15 01:00N 40°42' W 074°01'3 5.5
2017-Oct-15 00:30N 40°44' W 073°58'0 0.0
2017-Oct-14 23:59N 40°44' W 073°58'0 0.0
2017-Oct-14 23:30N 40°44' W 073°58'0 0.0
2017-Oct-14 23:00N 40°44' W 073°58'0 0.0
2017-Oct-14 03:29N 40°44' W 073°58'0 0.1
2017-Oct-14 03:01N 40°44' W 073°58'0 0.1
2017-Oct-14 02:31N 40°44' W 073°58'1 1.1
2017-Oct-14 01:59N 40°43' W 073°58'2 3.4
2017-Oct-14 01:30N 40°42' W 073°60'2 4.4
2017-Oct-14 01:00N 40°41' W 074°02'1 2.6
2017-Oct-14 00:30N 40°42' W 074°01'3 5.7
2017-Oct-14 00:00N 40°44' W 073°58'0 0.0
2017-Oct-13 23:30N 40°44' W 073°58'0 0.0
2017-Oct-13 22:59N 40°44' W 073°58'0 0.0
2017-Oct-13 22:30N 40°44' W 073°58'  
2017-Oct-08 03:05N 40°44' W 073°58'0 0.5
2017-Oct-08 03:00N 40°44' W 073°58'0 0.2
2017-Oct-08 02:30N 40°44' W 073°58'1 2.4
2017-Oct-08 02:00N 40°45' W 073°57'3 5.9
2017-Oct-08 01:30N 40°42' W 073°59'2 4.9
2017-Oct-08 01:00N 40°41' W 074°02'2 3.5
2017-Oct-08 00:30N 40°42' W 074°00'1 2.3
2017-Oct-08 00:00N 40°43' W 073°59'2 3.0
2017-Oct-07 23:30N 40°44' W 073°58'0 0.3
2017-Oct-07 23:00N 40°44' W 073°58'0 0.0
2017-Oct-07 22:31N 40°44' W 073°58'  

Dump ship's entire track history